Time;durP1;ratioP1;P1;durP2;ratioP2;P2;SDS_P1;SDS_P2;PMS_P1;PMS_P2;Temp;Humidity;BMP_temperature;BMP_pressure;BME280_temperature;BME280_humidity;BME280_pressure;Samples;Min_cycle;Max_cycle;Signal;HPM_P1;HPM_P2
2023/08/30 00:00:10;;;;;;;15.13;9.90;;;;;;;;;;778769;181;919180;-65
2023/08/30 00:02:36;;;;;;;22.57;9.07;;;;;;;;;;774288;177;918298;-65
2023/08/30 00:05:02;;;;;;;25.00;11.23;;;;;;;;;;773386;178;920405;-65
2023/08/30 00:07:28;;;;;;;24.63;11.47;;;;;;;;;;770747;179;875997;-65
2023/08/30 00:09:54;;;;;;;23.80;13.00;;;;;;;;;;770899;181;877170;-61
2023/08/30 00:12:19;;;;;;;17.23;9.90;;;;;;;;;;773464;180;917418;-62
2023/08/30 00:14:45;;;;;;;20.20;12.10;;;;;;;;;;772686;180;916751;-61
2023/08/30 00:17:11;;;;;;;17.73;10.07;;;;;;;;;;777236;180;916860;-59
2023/08/30 00:19:37;;;;;;;19.80;10.43;;;;;;;;;;776621;178;871449;-61
2023/08/30 00:22:03;;;;;;;19.80;10.97;;;;;;;;;;776878;177;873241;-61
2023/08/30 00:24:29;;;;;;;19.87;11.73;;;;;;;;;;777350;179;918651;-61
2023/08/30 00:26:55;;;;;;;17.00;11.57;;;;;;;;;;772518;179;919212;-66
2023/08/30 00:29:21;;;;;;;20.63;10.63;;;;;;;;;;773579;177;919371;-62
2023/08/30 00:31:46;;;;;;;23.58;11.57;;;;;;;;;;775429;181;919171;-61
2023/08/30 00:34:12;;;;;;;26.33;11.73;;;;;;;;;;773056;178;919272;-66
2023/08/30 00:36:38;;;;;;;16.37;9.98;;;;;;;;;;774666;180;919053;-67
2023/08/30 00:39:04;;;;;;;16.30;10.77;;;;;;;;;;772600;180;919116;-66
2023/08/30 00:41:30;;;;;;;17.30;8.77;;;;;;;;;;778114;181;817032;-67
2023/08/30 00:43:56;;;;;;;15.27;9.00;;;;;;;;;;767545;182;919516;-67
2023/08/30 00:46:22;;;;;;;12.13;8.33;;;;;;;;;;775517;180;919181;-61
2023/08/30 00:48:47;;;;;;;17.00;8.77;;;;;;;;;;773693;181;919332;-66
2023/08/30 00:51:13;;;;;;;12.43;8.17;;;;;;;;;;767584;181;919979;-61
2023/08/30 00:53:39;;;;;;;10.40;7.03;;;;;;;;;;764565;180;920755;-60
2023/08/30 00:56:05;;;;;;;21.95;7.75;;;;;;;;;;774061;177;921253;-61
2023/08/30 00:58:31;;;;;;;14.97;8.17;;;;;;;;;;761762;180;818918;-65
2023/08/30 01:00:57;;;;;;;11.50;7.43;;;;;;;;;;774338;180;922669;-65
2023/08/30 01:03:23;;;;;;;9.00;6.20;;;;;;;;;;775146;180;818010;-66
2023/08/30 01:05:48;;;;;;;22.73;8.20;;;;;;;;;;779643;180;920029;-60
2023/08/30 01:08:14;;;;;;;13.15;6.65;;;;;;;;;;775957;180;920612;-62
2023/08/30 01:10:43;;;;;;;16.53;6.93;;;;;;;;;;775095;180;919835;-61
2023/08/30 01:13:09;;;;;;;9.20;7.07;;;;;;;;;;779810;180;918826;-67
2023/08/30 01:15:34;;;;;;;11.53;6.80;;;;;;;;;;775737;177;918066;-60
2023/08/30 01:18:00;;;;;;;10.27;6.83;;;;;;;;;;770410;181;919257;-61
2023/08/30 01:20:26;;;;;;;8.73;6.30;;;;;;;;;;775523;180;917054;-62
2023/08/30 01:22:54;;;;;;;12.53;7.00;;;;;;;;;;775306;181;902056;-62
2023/08/30 01:25:35;;;;;;;10.43;7.47;;;;;;;;;;774430;178;919317;-62
2023/08/30 01:28:01;;;;;;;11.37;7.20;;;;;;;;;;771185;179;917778;-63
2023/08/30 01:30:27;;;;;;;11.90;7.87;;;;;;;;;;775454;179;919549;-62
2023/08/30 01:32:53;;;;;;;10.83;7.50;;;;;;;;;;776965;179;918160;-62
2023/08/30 01:35:19;;;;;;;11.50;6.70;;;;;;;;;;774342;180;918974;-67
2023/08/30 01:37:45;;;;;;;11.57;8.40;;;;;;;;;;771465;179;918776;-67
2023/08/30 01:40:11;;;;;;;13.20;6.93;;;;;;;;;;781561;181;918407;-66
2023/08/30 01:42:37;;;;;;;11.67;7.10;;;;;;;;;;775483;180;926766;-62
2023/08/30 01:45:04;;;;;;;15.53;8.10;;;;;;;;;;775200;180;920597;-65
2023/08/30 01:47:29;;;;;;;12.63;7.63;;;;;;;;;;775781;181;918545;-62
2023/08/30 01:49:55;;;;;;;15.67;8.10;;;;;;;;;;774259;178;921699;-67
2023/08/30 01:52:21;;;;;;;13.40;7.60;;;;;;;;;;773074;181;920315;-66
2023/08/30 01:54:47;;;;;;;11.03;7.47;;;;;;;;;;769948;178;919134;-62
2023/08/30 01:57:13;;;;;;;15.70;8.90;;;;;;;;;;780256;180;919218;-67
2023/08/30 01:59:39;;;;;;;12.13;7.73;;;;;;;;;;774416;180;919553;-62
2023/08/30 02:02:04;;;;;;;11.97;7.60;;;;;;;;;;773717;180;919312;-67
2023/08/30 02:04:33;;;;;;;12.27;7.83;;;;;;;;;;780952;180;919475;-68
2023/08/30 02:07:01;;;;;;;12.73;7.20;;;;;;;;;;776217;177;916100;-66
2023/08/30 02:09:27;;;;;;;11.77;6.10;;;;;;;;;;770885;180;920511;-67
2023/08/30 02:11:53;;;;;;;11.90;7.20;;;;;;;;;;773784;179;818585;-63
2023/08/30 02:14:18;;;;;;;11.10;5.63;;;;;;;;;;777937;178;819466;-65
2023/08/30 02:16:45;;;;;;;9.13;5.73;;;;;;;;;;765653;181;832750;-66
2023/08/30 02:19:11;;;;;;;12.20;6.63;;;;;;;;;;764784;180;816677;-65
2023/08/30 02:21:37;;;;;;;11.47;6.00;;;;;;;;;;780216;180;816744;-65
2023/08/30 02:24:03;;;;;;;9.73;6.27;;;;;;;;;;768822;182;817331;-62
2023/08/30 02:26:29;;;;;;;10.90;5.73;;;;;;;;;;770797;180;916777;-65
2023/08/30 02:28:54;;;;;;;8.03;5.60;;;;;;;;;;779050;180;819483;-66
2023/08/30 02:31:20;;;;;;;10.00;5.93;;;;;;;;;;774673;180;919066;-65
2023/08/30 02:33:46;;;;;;;8.05;5.55;;;;;;;;;;773702;177;819393;-65
2023/08/30 02:36:12;;;;;;;11.80;6.20;;;;;;;;;;772888;177;944071;-60
2023/08/30 02:38:38;;;;;;;11.87;6.07;;;;;;;;;;774258;182;766854;-65
2023/08/30 02:41:04;;;;;;;12.43;5.80;;;;;;;;;;773833;177;915739;-61
2023/08/30 02:43:29;;;;;;;8.17;6.10;;;;;;;;;;775048;179;922650;-65
2023/08/30 02:45:56;;;;;;;11.37;6.30;;;;;;;;;;781812;177;913349;-65
2023/08/30 02:48:21;;;;;;;12.23;6.10;;;;;;;;;;771105;178;880296;-59
2023/08/30 02:50:47;;;;;;;11.17;5.37;;;;;;;;;;772516;180;917248;-65
2023/08/30 02:53:13;;;;;;;9.37;5.00;;;;;;;;;;780739;177;861283;-65
2023/08/30 02:55:39;;;;;;;9.17;6.13;;;;;;;;;;776297;180;896435;-61
2023/08/30 02:58:04;;;;;;;9.43;5.90;;;;;;;;;;768779;180;901747;-60
2023/08/30 03:00:30;;;;;;;9.60;6.43;;;;;;;;;;765692;181;919147;-61
2023/08/30 03:02:56;;;;;;;8.20;6.27;;;;;;;;;;772648;181;917741;-64
2023/08/30 03:05:22;;;;;;;9.13;5.80;;;;;;;;;;773036;178;921722;-64
2023/08/30 03:07:48;;;;;;;7.70;5.47;;;;;;;;;;773165;180;914322;-65
2023/08/30 03:10:14;;;;;;;7.37;5.23;;;;;;;;;;777627;181;906272;-61
2023/08/30 03:12:40;;;;;;;10.87;5.73;;;;;;;;;;774400;181;915629;-61
2023/08/30 03:15:06;;;;;;;9.77;5.53;;;;;;;;;;773334;180;879917;-60
2023/08/30 03:17:32;;;;;;;8.70;4.10;;;;;;;;;;777428;180;915359;-66
2023/08/30 03:19:58;;;;;;;7.67;5.27;;;;;;;;;;772309;180;924930;-62
2023/08/30 03:22:23;;;;;;;5.90;3.77;;;;;;;;;;772308;180;919042;-61
2023/08/30 03:24:49;;;;;;;5.00;3.87;;;;;;;;;;773655;180;917786;-61
2023/08/30 03:27:15;;;;;;;5.70;3.60;;;;;;;;;;762974;182;919120;-65
2023/08/30 03:29:41;;;;;;;8.73;3.80;;;;;;;;;;769402;181;918503;-65
2023/08/30 03:32:07;;;;;;;5.43;3.73;;;;;;;;;;775082;179;918736;-66
2023/08/30 03:34:32;;;;;;;5.17;3.10;;;;;;;;;;779490;180;911656;-65
2023/08/30 03:36:58;;;;;;;5.27;3.80;;;;;;;;;;773815;180;914905;-65
2023/08/30 03:39:24;;;;;;;6.37;3.80;;;;;;;;;;768543;177;919364;-65
2023/08/30 03:41:50;;;;;;;5.50;3.43;;;;;;;;;;778756;181;918905;-60
2023/08/30 03:44:16;;;;;;;4.80;3.20;;;;;;;;;;773716;177;922432;-60
2023/08/30 03:46:42;;;;;;;5.80;3.47;;;;;;;;;;775249;180;918762;-64
2023/08/30 03:49:08;;;;;;;6.40;4.10;;;;;;;;;;775886;177;941263;-61
2023/08/30 03:51:33;;;;;;;6.97;4.50;;;;;;;;;;766689;178;847912;-64
2023/08/30 03:53:59;;;;;;;5.67;4.77;;;;;;;;;;767104;181;918740;-60
2023/08/30 03:56:25;;;;;;;6.90;4.00;;;;;;;;;;777218;176;919133;-64
2023/08/30 03:58:51;;;;;;;8.93;3.83;;;;;;;;;;781007;180;917057;-63
2023/08/30 04:01:17;;;;;;;6.73;4.70;;;;;;;;;;777629;180;915839;-59
2023/08/30 04:03:43;;;;;;;10.83;4.90;;;;;;;;;;777312;179;858729;-60
2023/08/30 04:06:09;;;;;;;6.00;4.37;;;;;;;;;;774105;180;922904;-64
2023/08/30 04:08:34;;;;;;;6.32;4.07;;;;;;;;;;772861;177;911759;-64
2023/08/30 04:11:00;;;;;;;7.53;5.03;;;;;;;;;;774999;177;919108;-60
2023/08/30 04:13:26;;;;;;;7.33;5.40;;;;;;;;;;779415;180;915416;-64
2023/08/30 04:15:52;;;;;;;8.83;5.23;;;;;;;;;;766888;180;915702;-61
2023/08/30 04:18:18;;;;;;;8.17;5.37;;;;;;;;;;773162;178;914317;-61
2023/08/30 04:20:45;;;;;;;7.90;5.60;;;;;;;;;;774425;180;917337;-61
2023/08/30 04:23:10;;;;;;;7.90;4.70;;;;;;;;;;772040;181;942183;-60
2023/08/30 04:25:36;;;;;;;9.90;6.20;;;;;;;;;;773394;180;920458;-64
2023/08/30 04:28:02;;;;;;;7.22;5.00;;;;;;;;;;771404;181;914247;-65
2023/08/30 04:30:28;;;;;;;7.60;5.40;;;;;;;;;;778459;180;920084;-62
2023/08/30 04:32:54;;;;;;;11.67;5.90;;;;;;;;;;768919;180;921676;-65
2023/08/30 04:35:20;;;;;;;9.57;5.97;;;;;;;;;;773164;180;920532;-61
2023/08/30 04:37:46;;;;;;;7.73;5.67;;;;;;;;;;779465;181;818863;-60
2023/08/30 04:40:12;;;;;;;12.53;5.20;;;;;;;;;;775697;180;818600;-61
2023/08/30 04:42:37;;;;;;;10.60;6.20;;;;;;;;;;770112;180;816277;-63
2023/08/30 04:45:04;;;;;;;9.00;5.22;;;;;;;;;;778581;180;917134;-64
2023/08/30 04:47:30;;;;;;;8.47;5.70;;;;;;;;;;772379;180;917653;-60
2023/08/30 04:49:56;;;;;;;8.37;4.87;;;;;;;;;;772906;178;920202;-64
2023/08/30 04:52:22;;;;;;;9.00;5.13;;;;;;;;;;770681;181;818131;-65
2023/08/30 04:54:48;;;;;;;7.00;5.30;;;;;;;;;;775762;181;816904;-65
2023/08/30 04:57:14;;;;;;;7.47;5.40;;;;;;;;;;773077;181;917356;-61
2023/08/30 04:59:39;;;;;;;8.47;6.00;;;;;;;;;;763666;181;917353;-65
2023/08/30 05:02:05;;;;;;;7.93;5.03;;;;;;;;;;777870;177;766046;-65
2023/08/30 05:04:31;;;;;;;6.80;4.27;;;;;;;;;;761152;181;917082;-61
2023/08/30 05:06:57;;;;;;;11.07;5.30;;;;;;;;;;777217;177;806294;-60
2023/08/30 05:09:24;;;;;;;5.93;4.30;;;;;;;;;;782873;178;629860;-64
2023/08/30 05:11:48;;;;;;;5.63;4.43;;;;;;;;;;778728;178;633555;-64
2023/08/30 05:14:14;;;;;;;8.27;5.37;;;;;;;;;;779899;179;635555;-64
2023/08/30 05:16:40;;;;;;;6.90;5.47;;;;;;;;;;776319;178;626441;-61
2023/08/30 05:19:06;;;;;;;7.23;4.70;;;;;;;;;;781376;178;812807;-61
2023/08/30 05:21:32;;;;;;;6.67;4.70;;;;;;;;;;772882;178;925212;-65
2023/08/30 05:23:58;;;;;;;7.80;4.70;;;;;;;;;;774263;179;812382;-66
2023/08/30 05:26:23;;;;;;;7.07;4.67;;;;;;;;;;775569;181;907125;-59
2023/08/30 05:28:49;;;;;;;6.80;4.30;;;;;;;;;;767728;180;911568;-61
2023/08/30 05:31:15;;;;;;;6.80;4.20;;;;;;;;;;772843;180;915210;-59
2023/08/30 05:33:41;;;;;;;6.95;4.25;;;;;;;;;;779969;180;918340;-66
2023/08/30 05:36:07;;;;;;;11.03;4.00;;;;;;;;;;773845;177;915757;-59
2023/08/30 05:38:33;;;;;;;5.87;3.70;;;;;;;;;;771967;179;914487;-65
2023/08/30 05:40:58;;;;;;;8.43;4.10;;;;;;;;;;766692;180;920283;-60
2023/08/30 05:43:24;;;;;;;6.10;3.97;;;;;;;;;;763154;182;827197;-59
2023/08/30 05:45:50;;;;;;;6.10;4.30;;;;;;;;;;767874;179;916900;-59
2023/08/30 05:48:16;;;;;;;9.63;3.93;;;;;;;;;;768484;177;916695;-65
2023/08/30 05:50:42;;;;;;;5.30;3.03;;;;;;;;;;779574;180;812982;-65
2023/08/30 05:53:08;;;;;;;5.40;3.50;;;;;;;;;;763674;182;902277;-65
2023/08/30 05:55:33;;;;;;;6.23;3.70;;;;;;;;;;762040;181;919266;-61
2023/08/30 05:57:59;;;;;;;7.37;4.47;;;;;;;;;;781572;181;816410;-60
2023/08/30 06:00:25;;;;;;;6.13;3.77;;;;;;;;;;776639;180;819406;-66
2023/08/30 06:02:51;;;;;;;4.93;2.93;;;;;;;;;;763279;182;917760;-61
2023/08/30 06:05:17;;;;;;;16.90;4.07;;;;;;;;;;768980;181;876421;-61
2023/08/30 06:07:43;;;;;;;5.67;2.77;;;;;;;;;;775388;180;923544;-65
2023/08/30 06:10:09;;;;;;;4.50;2.87;;;;;;;;;;768955;181;921441;-65
2023/08/30 06:12:34;;;;;;;2.97;1.90;;;;;;;;;;773183;177;918835;-60
2023/08/30 06:15:00;;;;;;;6.03;2.60;;;;;;;;;;775504;181;921034;-60
2023/08/30 06:17:26;;;;;;;4.20;2.40;;;;;;;;;;773950;181;919655;-60
2023/08/30 06:19:52;;;;;;;4.17;2.40;;;;;;;;;;772766;179;923479;-65
2023/08/30 06:22:18;;;;;;;4.37;2.50;;;;;;;;;;776462;181;920469;-60
2023/08/30 06:24:44;;;;;;;5.35;2.83;;;;;;;;;;773650;180;901002;-60
2023/08/30 06:27:09;;;;;;;3.80;2.53;;;;;;;;;;773788;177;927134;-66
2023/08/30 06:29:36;;;;;;;3.30;2.40;;;;;;;;;;774614;176;916882;-66
2023/08/30 06:32:02;;;;;;;4.70;2.13;;;;;;;;;;760302;181;920038;-60
2023/08/30 06:34:27;;;;;;;4.27;2.50;;;;;;;;;;769862;181;925364;-60
2023/08/30 06:36:53;;;;;;;4.07;2.20;;;;;;;;;;761709;181;919072;-60
2023/08/30 06:39:19;;;;;;;3.90;2.47;;;;;;;;;;773381;180;918482;-66
2023/08/30 06:41:44;;;;;;;4.10;2.97;;;;;;;;;;762958;181;919218;-66
2023/08/30 06:44:10;;;;;;;3.50;2.40;;;;;;;;;;765949;181;850346;-66
2023/08/30 06:46:37;;;;;;;3.73;2.00;;;;;;;;;;766430;181;816268;-61
2023/08/30 06:49:02;;;;;;;5.97;2.20;;;;;;;;;;765071;181;800415;-66
2023/08/30 06:51:28;;;;;;;3.60;2.07;;;;;;;;;;761499;181;919528;-65
2023/08/30 06:53:55;;;;;;;3.67;1.93;;;;;;;;;;760856;182;819144;-59
2023/08/30 06:56:20;;;;;;;3.00;1.90;;;;;;;;;;766788;181;921840;-65
2023/08/30 06:58:45;;;;;;;8.90;3.23;;;;;;;;;;765107;181;914216;-65
2023/08/30 07:01:12;;;;;;;3.93;2.50;;;;;;;;;;764230;181;917994;-61
2023/08/30 07:03:38;;;;;;;6.90;2.07;;;;;;;;;;763724;181;892795;-64
2023/08/30 07:06:03;;;;;;;6.17;1.93;;;;;;;;;;762933;181;761084;-60
2023/08/30 07:08:29;;;;;;;3.60;2.30;;;;;;;;;;755598;181;919606;-66
2023/08/30 07:10:55;;;;;;;2.60;1.83;;;;;;;;;;766391;181;919564;-65
2023/08/30 07:13:21;;;;;;;2.60;1.60;;;;;;;;;;761687;180;851367;-66
2023/08/30 07:15:46;;;;;;;3.97;2.30;;;;;;;;;;760909;181;919049;-65
2023/08/30 07:18:12;;;;;;;5.67;2.67;;;;;;;;;;765940;181;920160;-60
2023/08/30 07:20:38;;;;;;;3.43;2.00;;;;;;;;;;766312;181;900876;-61
2023/08/30 07:23:04;;;;;;;3.67;2.00;;;;;;;;;;768729;181;919261;-61
2023/08/30 07:25:32;;;;;;;5.37;1.90;;;;;;;;;;764273;181;918707;-65
2023/08/30 07:27:56;;;;;;;3.10;2.30;;;;;;;;;;763175;181;920217;-66
2023/08/30 07:30:22;;;;;;;4.53;2.03;;;;;;;;;;762192;181;919727;-61
2023/08/30 07:32:48;;;;;;;4.23;2.10;;;;;;;;;;769832;180;920362;-61
2023/08/30 07:35:14;;;;;;;3.50;2.17;;;;;;;;;;767126;181;849766;-61
2023/08/30 07:37:40;;;;;;;4.00;2.20;;;;;;;;;;768671;181;818037;-60
2023/08/30 07:40:07;;;;;;;3.87;1.90;;;;;;;;;;762386;181;923953;-63
2023/08/30 07:42:32;;;;;;;3.30;1.80;;;;;;;;;;769083;181;923296;-64
2023/08/30 07:44:58;;;;;;;3.13;1.77;;;;;;;;;;764871;181;920944;-65
2023/08/30 07:47:24;;;;;;;2.50;1.60;;;;;;;;;;766243;181;919570;-65
2023/08/30 07:49:50;;;;;;;4.85;1.42;;;;;;;;;;763252;182;815795;-59
2023/08/30 07:52:16;;;;;;;5.60;1.70;;;;;;;;;;767886;181;918359;-64
2023/08/30 07:54:42;;;;;;;4.43;1.40;;;;;;;;;;759148;181;920639;-65
2023/08/30 07:57:08;;;;;;;4.43;1.80;;;;;;;;;;762777;182;886225;-64
2023/08/30 07:59:34;;;;;;;3.03;1.37;;;;;;;;;;771160;182;816777;-64
2023/08/30 08:01:59;;;;;;;3.00;1.27;;;;;;;;;;766755;181;807776;-64
2023/08/30 08:04:25;;;;;;;2.70;1.50;;;;;;;;;;766062;182;912901;-60
2023/08/30 08:06:51;;;;;;;3.60;1.70;;;;;;;;;;768331;181;805914;-64
2023/08/30 08:09:17;;;;;;;2.83;1.40;;;;;;;;;;763984;181;921567;-58
2023/08/30 08:11:43;;;;;;;2.80;1.57;;;;;;;;;;766126;181;846571;-66
2023/08/30 08:14:08;;;;;;;2.57;1.27;;;;;;;;;;763396;181;885230;-66
2023/08/30 08:16:34;;;;;;;3.23;1.77;;;;;;;;;;766941;180;922788;-59
2023/08/30 08:19:01;;;;;;;2.40;1.17;;;;;;;;;;761826;181;877592;-59
2023/08/30 08:21:26;;;;;;;3.07;1.40;;;;;;;;;;760432;181;919956;-64
2023/08/30 08:23:52;;;;;;;2.63;1.50;;;;;;;;;;766264;181;919782;-66
2023/08/30 08:26:18;;;;;;;2.20;1.20;;;;;;;;;;759842;181;919206;-60
2023/08/30 08:28:44;;;;;;;2.50;1.37;;;;;;;;;;763375;181;918418;-60
2023/08/30 08:31:11;;;;;;;2.70;1.57;;;;;;;;;;766007;183;935737;-60
2023/08/30 08:33:37;;;;;;;2.10;1.10;;;;;;;;;;761776;181;922422;-60
2023/08/30 08:36:03;;;;;;;2.20;1.30;;;;;;;;;;771195;180;918784;-64
2023/08/30 08:38:29;;;;;;;2.70;1.57;;;;;;;;;;768706;181;919315;-61
2023/08/30 08:40:56;;;;;;;3.07;1.50;;;;;;;;;;759354;181;922561;-64
2023/08/30 08:43:21;;;;;;;3.13;1.87;;;;;;;;;;763724;181;919242;-66
2023/08/30 08:45:48;;;;;;;3.40;1.40;;;;;;;;;;762947;181;853283;-61
2023/08/30 08:48:13;;;;;;;3.00;1.57;;;;;;;;;;769439;181;919288;-60
2023/08/30 08:50:39;;;;;;;2.33;1.40;;;;;;;;;;767133;180;919156;-60
2023/08/30 08:53:05;;;;;;;2.17;1.20;;;;;;;;;;760343;182;886469;-60
2023/08/30 08:55:31;;;;;;;2.17;1.10;;;;;;;;;;761293;181;920164;-63
2023/08/30 08:57:56;;;;;;;2.33;1.10;;;;;;;;;;767965;181;815670;-61
2023/08/30 09:00:22;;;;;;;2.33;1.10;;;;;;;;;;761883;181;916424;-65
2023/08/30 09:02:51;;;;;;;2.10;1.07;;;;;;;;;;772420;181;918349;-64
2023/08/30 09:05:14;;;;;;;2.10;1.10;;;;;;;;;;770617;177;919211;-67
2023/08/30 09:07:40;;;;;;;3.70;0.93;;;;;;;;;;772126;179;948222;-64
2023/08/30 09:10:06;;;;;;;2.33;1.40;;;;;;;;;;767689;181;919372;-61
2023/08/30 09:12:33;;;;;;;1.80;0.80;;;;;;;;;;773354;180;918958;-65
2023/08/30 09:14:58;;;;;;;1.80;0.80;;;;;;;;;;765591;181;919079;-61
2023/08/30 09:17:25;;;;;;;2.43;1.30;;;;;;;;;;773955;180;918621;-60
2023/08/30 09:19:50;;;;;;;2.20;1.00;;;;;;;;;;776359;180;919159;-61
2023/08/30 09:22:16;;;;;;;3.55;1.65;;;;;;;;;;763358;180;919345;-61
2023/08/30 09:24:42;;;;;;;3.63;2.10;;;;;;;;;;770698;180;919386;-64
2023/08/30 09:27:08;;;;;;;2.30;1.10;;;;;;;;;;779218;178;918763;-66
2023/08/30 09:29:34;;;;;;;3.35;1.30;;;;;;;;;;772586;179;918558;-64
2023/08/30 09:32:00;;;;;;;3.10;1.20;;;;;;;;;;773428;178;918955;-65
2023/08/30 09:34:25;;;;;;;3.70;1.57;;;;;;;;;;774138;180;919087;-64
2023/08/30 09:36:51;;;;;;;4.20;1.43;;;;;;;;;;777915;180;934017;-60
2023/08/30 09:39:17;;;;;;;2.80;1.30;;;;;;;;;;772719;180;920415;-61
2023/08/30 09:41:43;;;;;;;2.40;1.27;;;;;;;;;;765341;180;919942;-59
2023/08/30 09:44:11;;;;;;;4.00;1.47;;;;;;;;;;777693;180;817871;-65
2023/08/30 09:46:43;;;;;;;2.57;1.30;;;;;;;;;;772677;180;820389;-60
2023/08/30 09:49:09;;;;;;;2.20;1.20;;;;;;;;;;773145;180;919343;-61
2023/08/30 09:51:34;;;;;;;2.67;1.33;;;;;;;;;;774401;181;917254;-61
2023/08/30 09:54:00;;;;;;;3.33;1.30;;;;;;;;;;779611;180;917839;-65
2023/08/30 09:56:26;;;;;;;3.30;1.30;;;;;;;;;;773443;177;919528;-65
2023/08/30 09:58:52;;;;;;;2.47;1.43;;;;;;;;;;774202;177;920244;-61
2023/08/30 10:01:18;;;;;;;2.20;1.20;;;;;;;;;;777937;177;918675;-64
2023/08/30 10:03:43;;;;;;;3.03;1.20;;;;;;;;;;773741;180;919779;-61
2023/08/30 10:06:09;;;;;;;3.00;1.83;;;;;;;;;;766228;181;920416;-66
2023/08/30 10:08:36;;;;;;;3.23;1.90;;;;;;;;;;778695;180;919762;-66
2023/08/30 10:11:01;;;;;;;2.60;1.50;;;;;;;;;;774681;180;918980;-65
2023/08/30 10:13:27;;;;;;;3.37;1.70;;;;;;;;;;770266;178;918325;-65
2023/08/30 10:15:53;;;;;;;2.93;1.80;;;;;;;;;;773074;177;921304;-59
2023/08/30 10:18:18;;;;;;;3.47;1.80;;;;;;;;;;769113;180;825277;-61
2023/08/30 10:20:45;;;;;;;4.10;1.90;;;;;;;;;;773527;179;919966;-65
2023/08/30 10:23:11;;;;;;;3.17;1.77;;;;;;;;;;777100;180;918217;-61
2023/08/30 10:25:37;;;;;;;4.10;1.63;;;;;;;;;;777483;180;818293;-60
2023/08/30 10:28:02;;;;;;;2.80;1.50;;;;;;;;;;774311;178;821560;-66
2023/08/30 10:30:28;;;;;;;4.73;1.80;;;;;;;;;;768679;180;938011;-61
2023/08/30 10:32:54;;;;;;;4.80;1.60;;;;;;;;;;778667;180;921516;-65
2023/08/30 10:35:19;;;;;;;6.13;1.50;;;;;;;;;;773194;178;716153;-66
2023/08/30 10:37:51;;;;;;;3.00;1.60;;;;;;;;;;772425;181;919393;-61
2023/08/30 10:40:18;;;;;;;2.60;1.90;;;;;;;;;;772374;180;919137;-65
2023/08/30 10:42:43;;;;;;;2.53;1.30;;;;;;;;;;780396;180;924656;-60
2023/08/30 10:45:09;;;;;;;3.40;1.27;;;;;;;;;;771917;179;918764;-66
2023/08/30 10:47:37;;;;;;;2.97;1.87;;;;;;;;;;775838;180;822399;-61
2023/08/30 10:50:04;;;;;;;5.83;1.63;;;;;;;;;;779624;180;919180;-61
2023/08/30 10:52:27;;;;;;;4.07;1.90;;;;;;;;;;768817;177;904009;-60
2023/08/30 10:54:53;;;;;;;5.70;1.73;;;;;;;;;;757420;182;860936;-61
2023/08/30 10:57:19;;;;;;;3.20;1.33;;;;;;;;;;775826;180;915862;-65
2023/08/30 10:59:50;;;;;;;4.03;1.70;;;;;;;;;;764335;180;917715;-61
2023/08/30 11:02:16;;;;;;;2.20;1.30;;;;;;;;;;767170;181;865330;-65
2023/08/30 11:04:42;;;;;;;3.47;1.70;;;;;;;;;;771217;179;921859;-61
2023/08/30 11:07:08;;;;;;;5.50;1.30;;;;;;;;;;773525;180;907724;-62
2023/08/30 11:09:34;;;;;;;2.90;1.20;;;;;;;;;;771291;178;920724;-65
2023/08/30 11:12:00;;;;;;;2.90;1.20;;;;;;;;;;776034;180;920517;-61
2023/08/30 11:14:25;;;;;;;3.60;1.30;;;;;;;;;;777112;180;960006;-60
2023/08/30 11:16:51;;;;;;;2.67;1.20;;;;;;;;;;773197;178;914786;-61
2023/08/30 11:19:17;;;;;;;3.03;1.20;;;;;;;;;;775049;180;907904;-60
2023/08/30 11:21:43;;;;;;;2.67;1.40;;;;;;;;;;763743;181;917421;-67
2023/08/30 11:24:09;;;;;;;2.33;1.23;;;;;;;;;;776819;180;915505;-62
2023/08/30 11:26:35;;;;;;;5.30;1.43;;;;;;;;;;764801;181;921448;-60
2023/08/30 11:29:04;;;;;;;2.85;1.05;;;;;;;;;;774921;180;917026;-65
2023/08/30 11:31:30;;;;;;;2.40;1.10;;;;;;;;;;781031;177;816993;-65
2023/08/30 11:33:56;;;;;;;2.40;1.20;;;;;;;;;;771583;180;818338;-62
2023/08/30 11:36:22;;;;;;;6.28;1.30;;;;;;;;;;772085;180;919179;-60
2023/08/30 11:38:48;;;;;;;2.80;1.07;;;;;;;;;;767296;177;917573;-64
2023/08/30 11:41:13;;;;;;;2.50;1.40;;;;;;;;;;764320;182;863012;-64
2023/08/30 11:43:39;;;;;;;3.43;1.67;;;;;;;;;;764897;180;936727;-64
2023/08/30 11:46:05;;;;;;;2.40;1.17;;;;;;;;;;771466;177;919655;-60
2023/08/30 11:48:31;;;;;;;5.00;1.47;;;;;;;;;;779226;180;817152;-65
2023/08/30 11:50:57;;;;;;;2.30;1.20;;;;;;;;;;769839;178;921273;-60
2023/08/30 11:53:23;;;;;;;2.80;1.23;;;;;;;;;;770018;177;919307;-59
2023/08/30 11:55:48;;;;;;;3.00;1.63;;;;;;;;;;769815;180;920778;-59
2023/08/30 11:58:14;;;;;;;6.13;1.60;;;;;;;;;;774592;180;920939;-63
2023/08/30 12:00:40;;;;;;;3.50;1.40;;;;;;;;;;774393;180;920752;-65
2023/08/30 12:03:06;;;;;;;2.50;1.30;;;;;;;;;;780316;180;919747;-59
2023/08/30 12:05:35;;;;;;;3.03;1.00;;;;;;;;;;768818;180;919474;-60
2023/08/30 12:07:58;;;;;;;3.27;1.20;;;;;;;;;;774792;177;918072;-61
2023/08/30 12:10:24;;;;;;;5.43;1.30;;;;;;;;;;771945;178;917654;-65
2023/08/30 12:12:49;;;;;;;2.97;1.80;;;;;;;;;;777072;181;816389;-60
2023/08/30 12:15:16;;;;;;;4.20;1.10;;;;;;;;;;771169;180;820426;-66
2023/08/30 12:17:41;;;;;;;2.80;1.23;;;;;;;;;;774444;178;820694;-61
2023/08/30 12:20:08;;;;;;;3.93;0.97;;;;;;;;;;774328;181;917180;-66
2023/08/30 12:22:37;;;;;;;2.20;1.10;;;;;;;;;;769009;181;916928;-62
2023/08/30 12:25:03;;;;;;;3.83;1.20;;;;;;;;;;767254;179;915288;-65
2023/08/30 12:27:28;;;;;;;5.90;0.93;;;;;;;;;;772658;179;920111;-65
2023/08/30 12:29:54;;;;;;;10.27;1.10;;;;;;;;;;769372;180;824939;-59
2023/08/30 12:32:20;;;;;;;3.07;1.20;;;;;;;;;;772731;177;932772;-59
2023/08/30 12:34:46;;;;;;;3.30;1.00;;;;;;;;;;774498;177;920284;-60
2023/08/30 12:37:11;;;;;;;2.93;0.93;;;;;;;;;;778055;178;818253;-60
2023/08/30 12:39:37;;;;;;;2.30;1.33;;;;;;;;;;772601;177;916885;-61
2023/08/30 12:42:04;;;;;;;7.23;4.13;;;;;;;;;;774315;177;916781;-61
2023/08/30 12:44:29;;;;;;;2.62;1.00;;;;;;;;;;777808;179;921042;-59
2023/08/30 12:46:55;;;;;;;8.10;7.30;;;;;;;;;;770735;180;918561;-65
2023/08/30 12:49:21;;;;;;;2.33;1.57;;;;;;;;;;777939;180;636596;-62
2023/08/30 12:51:47;;;;;;;47.83;26.17;;;;;;;;;;781788;180;626571;-61
2023/08/30 12:54:13;;;;;;;7.10;6.43;;;;;;;;;;768823;180;918253;-61
2023/08/30 12:56:38;;;;;;;3.20;2.43;;;;;;;;;;763493;182;918869;-62
2023/08/30 12:59:04;;;;;;;7.23;5.87;;;;;;;;;;769041;179;813305;-65
2023/08/30 13:01:30;;;;;;;5.67;3.57;;;;;;;;;;779515;178;914709;-66
2023/08/30 13:03:56;;;;;;;6.80;5.23;;;;;;;;;;774898;180;858367;-65
2023/08/30 13:06:22;;;;;;;2.87;2.03;;;;;;;;;;771940;179;926250;-65
2023/08/30 13:08:48;;;;;;;3.20;1.40;;;;;;;;;;777733;181;913695;-60
2023/08/30 13:11:13;;;;;;;2.93;1.83;;;;;;;;;;765543;180;920289;-65
2023/08/30 13:13:39;;;;;;;4.00;1.23;;;;;;;;;;772598;179;914725;-65
2023/08/30 13:16:05;;;;;;;4.97;4.50;;;;;;;;;;775431;177;916389;-64
2023/08/30 13:18:32;;;;;;;3.47;1.00;;;;;;;;;;762492;180;924514;-59
2023/08/30 13:20:58;;;;;;;3.50;1.37;;;;;;;;;;765793;180;915977;-61
2023/08/30 13:23:23;;;;;;;7.40;1.67;;;;;;;;;;775084;177;899621;-60
2023/08/30 13:25:49;;;;;;;2.00;1.10;;;;;;;;;;776430;180;920727;-61
2023/08/30 13:28:15;;;;;;;2.77;1.50;;;;;;;;;;766093;180;913185;-60
2023/08/30 13:30:44;;;;;;;2.50;1.10;;;;;;;;;;767528;181;915572;-59
2023/08/30 13:33:10;;;;;;;2.87;1.37;;;;;;;;;;774896;181;916486;-65
2023/08/30 13:35:35;;;;;;;2.83;1.30;;;;;;;;;;775622;177;918670;-60
2023/08/30 13:38:01;;;;;;;2.10;0.90;;;;;;;;;;772487;178;874194;-67
2023/08/30 13:40:27;;;;;;;2.20;1.40;;;;;;;;;;773001;181;916358;-64
2023/08/30 13:42:53;;;;;;;3.17;1.20;;;;;;;;;;774043;180;922004;-66
2023/08/30 13:45:19;;;;;;;2.90;1.80;;;;;;;;;;769612;180;920973;-60
2023/08/30 13:47:46;;;;;;;2.60;1.13;;;;;;;;;;769074;177;939112;-65
2023/08/30 13:50:11;;;;;;;2.03;1.00;;;;;;;;;;781003;180;632266;-66
2023/08/30 13:52:36;;;;;;;2.50;0.90;;;;;;;;;;773937;177;915928;-66
2023/08/30 13:55:02;;;;;;;2.17;1.00;;;;;;;;;;773213;179;920208;-61
2023/08/30 13:57:28;;;;;;;4.77;2.43;;;;;;;;;;778895;178;912400;-67
2023/08/30 13:59:54;;;;;;;15.10;11.53;;;;;;;;;;775615;178;917393;-65
2023/08/30 14:02:20;;;;;;;2.95;1.35;;;;;;;;;;771848;180;917484;-66
2023/08/30 14:04:46;;;;;;;4.10;1.60;;;;;;;;;;775684;180;817154;-60
2023/08/30 14:07:12;;;;;;;28.53;16.23;;;;;;;;;;771383;180;918859;-60
2023/08/30 14:09:37;;;;;;;9.73;6.40;;;;;;;;;;774431;180;925220;-65
2023/08/30 14:12:03;;;;;;;38.57;25.50;;;;;;;;;;771610;177;919537;-64
2023/08/30 14:14:29;;;;;;;4.57;3.10;;;;;;;;;;770157;180;916265;-61
2023/08/30 14:16:55;;;;;;;5.50;2.03;;;;;;;;;;761044;181;938874;-65